EBFN

Details ICAO EBFN
Name KOKSIJDE
Region Belgium
Timezone Europe/Brussels (UTC+1.0)
Plans Departing 4
Arriving 15
Stats Elevation 20 ft / 6 m (AMSL)
Location 51.090220° 2.652930°
Runways 1
Magnetic Variation 0.525° E
Sunrise 2017-12-16 07:48:46 UTC / 2017-12-16 08:48:46 Local
Sunset 2017-12-16 15:44:02 UTC / 2017-12-16 16:44:02 Local
Advertisement - Login to hide

Runways

ID Width Length Bearing (true) Bearing (mag) Surface Threshold Offset Overrun Length
11 115 ft / 35 m 8,754 ft / 2,668 m 108.24° 107.71° Asphalt 312 ft / 95 m 3 ft / 1 m
29 115 ft / 35 m 8,754 ft / 2,668 m 288.26° 287.73° Asphalt 325 ft / 99 m 0 ft / 0 m

Map

Weather


0- 5 10 15 20 25 30 35+ Temperature / ° C

Clouds and Precipitation
Forecast for 2017-12-16 06:00 UTC. Updated 29 minutes ago

Ground ~20,000 ft ~40,000 ft Winds

METAR

EBFN 160533Z AUTO 33013KT 9999 SCT015/// OVC054/// 05/04 Q1011 WHT

TAF

Not found

Frequencies

Ground 122.10 MHz TAXI
Tower 129.32 MHz BELGA INFO
Tower 122.10 MHz TWR
Approach 122.50 MHz APP
Warning: Do not use this data for real-world aviation or navigation. No guarantee of current accuracy is given.